Time;durP1;ratioP1;P1;durP2;ratioP2;P2;SDS_P1;SDS_P2;PMS_P1;PMS_P2;Temp;Humidity;BMP_temperature;BMP_pressure;BME280_temperature;BME280_humidity;BME280_pressure;Samples;Min_cycle;Max_cycle;Signal;HPM_P1;HPM_P2
2022/08/07 00:01:13;;;;;;;5.45;4.25;;;;;;;;;;5030853;28;20033;-88
2022/08/07 00:03:40;;;;;;;5.90;4.18;;;;;;;;;;5031108;28;20025;-88
2022/08/07 00:06:06;;;;;;;6.90;4.20;;;;;;;;;;5031598;28;20025;-88
2022/08/07 00:08:32;;;;;;;6.07;3.85;;;;;;;;;;5031912;28;20108;-88
2022/08/07 00:10:58;;;;;;;6.68;4.50;;;;;;;;;;5027495;28;20480;-88
2022/08/07 00:13:24;;;;;;;5.38;3.90;;;;;;;;;;5021039;28;21098;-89
2022/08/07 00:15:51;;;;;;;5.75;4.05;;;;;;;;;;5029829;28;20450;-89
2022/08/07 00:18:18;;;;;;;5.93;3.80;;;;;;;;;;5031456;28;20045;-88
2022/08/07 00:20:44;;;;;;;5.82;4.22;;;;;;;;;;5032205;28;20032;-87
2022/08/07 00:23:10;;;;;;;5.93;4.40;;;;;;;;;;5030646;28;20018;-87
2022/08/07 00:25:36;;;;;;;5.75;4.18;;;;;;;;;;5031614;28;20071;-87
2022/08/07 00:28:02;;;;;;;6.53;4.22;;;;;;;;;;5030868;28;20071;-89
2022/08/07 00:30:29;;;;;;;7.25;4.15;;;;;;;;;;5029441;28;20483;-88
2022/08/07 00:32:56;;;;;;;6.38;3.92;;;;;;;;;;5011243;28;20112;-87
2022/08/07 00:35:22;;;;;;;6.07;4.15;;;;;;;;;;5016947;28;20029;-88
2022/08/07 00:37:48;;;;;;;5.53;3.83;;;;;;;;;;5030468;28;20044;-88
2022/08/07 00:40:15;;;;;;;6.65;4.15;;;;;;;;;;5047289;28;20037;-87
2022/08/07 00:42:41;;;;;;;6.05;4.03;;;;;;;;;;5033852;28;20017;-87
2022/08/07 00:45:09;;;;;;;6.82;4.00;;;;;;;;;;5033566;28;20059;-87
2022/08/07 00:47:35;;;;;;;5.65;3.78;;;;;;;;;;5033743;28;20033;-88
2022/08/07 00:50:01;;;;;;;5.97;3.90;;;;;;;;;;5033030;28;20029;-88
2022/08/07 00:52:27;;;;;;;4.93;3.53;;;;;;;;;;5033735;28;20060;-87
2022/08/07 00:54:53;;;;;;;7.22;3.90;;;;;;;;;;5034094;28;20020;-87
2022/08/07 00:57:20;;;;;;;5.75;4.05;;;;;;;;;;5033764;28;20067;-88
2022/08/07 00:59:47;;;;;;;5.88;3.78;;;;;;;;;;5033856;28;20406;-88
2022/08/07 01:02:13;;;;;;;5.10;4.00;;;;;;;;;;5030830;28;20025;-87
2022/08/07 01:04:39;;;;;;;6.00;4.10;;;;;;;;;;5013913;28;20120;-88
2022/08/07 01:07:06;;;;;;;5.30;4.22;;;;;;;;;;5025741;28;20051;-88
2022/08/07 01:09:33;;;;;;;6.32;4.10;;;;;;;;;;5013891;28;20068;-87
2022/08/07 01:11:59;;;;;;;6.65;3.78;;;;;;;;;;5031977;28;20025;-88
2022/08/07 01:14:26;;;;;;;6.63;3.80;;;;;;;;;;5033269;28;20078;-87
2022/08/07 01:16:53;;;;;;;5.85;3.70;;;;;;;;;;5033449;28;20544;-88
2022/08/07 01:19:20;;;;;;;5.40;3.55;;;;;;;;;;5051289;28;20566;-88
2022/08/07 01:21:47;;;;;;;5.25;3.55;;;;;;;;;;5033417;28;20033;-88
2022/08/07 01:24:13;;;;;;;6.97;4.38;;;;;;;;;;5033924;28;20072;-87
2022/08/07 01:26:40;;;;;;;5.55;4.03;;;;;;;;;;5033516;28;20032;-88
2022/08/07 01:29:06;;;;;;;6.85;3.90;;;;;;;;;;5033861;28;20033;-88
2022/08/07 01:31:32;;;;;;;5.32;3.75;;;;;;;;;;5033669;28;20024;-87
2022/08/07 01:33:59;;;;;;;6.50;4.35;;;;;;;;;;5033220;28;20379;-88
2022/08/07 01:36:25;;;;;;;5.30;3.60;;;;;;;;;;5033485;28;20063;-87
2022/08/07 01:38:51;;;;;;;6.20;3.67;;;;;;;;;;5033197;28;20146;-88
2022/08/07 01:41:21;;;;;;;5.80;3.90;;;;;;;;;;5032797;28;20118;-87
2022/08/07 01:43:48;;;;;;;7.60;4.43;;;;;;;;;;5033412;28;20033;-88
2022/08/07 01:46:15;;;;;;;5.93;3.55;;;;;;;;;;5033457;28;20036;-87
2022/08/07 01:48:41;;;;;;;4.97;3.42;;;;;;;;;;5051270;28;20398;-87
2022/08/07 01:51:09;;;;;;;5.30;3.80;;;;;;;;;;5041491;28;20170;-87
2022/08/07 01:53:36;;;;;;;5.20;3.38;;;;;;;;;;5043802;28;20029;-87
2022/08/07 01:56:05;;;;;;;5.50;3.80;;;;;;;;;;5024263;28;20030;-87
2022/08/07 01:58:33;;;;;;;6.25;3.50;;;;;;;;;;5038278;28;20503;-89
2022/08/07 02:01:05;;;;;;;5.00;3.38;;;;;;;;;;5052553;28;20037;-90
2022/08/07 02:03:33;;;;;;;5.78;3.85;;;;;;;;;;5038206;28;20040;-86
2022/08/07 02:06:04;;;;;;;5.40;3.35;;;;;;;;;;5038266;28;20044;-88
2022/08/07 02:08:32;;;;;;;6.47;3.78;;;;;;;;;;5038508;28;20029;-89
2022/08/07 02:11:00;;;;;;;5.57;3.80;;;;;;;;;;5037331;28;20466;-89
2022/08/07 02:13:27;;;;;;;4.97;3.40;;;;;;;;;;5055463;28;20029;-89
2022/08/07 02:15:54;;;;;;;5.45;3.15;;;;;;;;;;5037746;28;20474;-88
2022/08/07 02:18:21;;;;;;;5.10;3.40;;;;;;;;;;5037975;28;20462;-89
2022/08/07 02:20:48;;;;;;;5.60;3.30;;;;;;;;;;5038282;28;20363;-89
2022/08/07 02:23:16;;;;;;;6.07;3.35;;;;;;;;;;5039706;28;20430;-87
2022/08/07 02:25:42;;;;;;;5.18;3.35;;;;;;;;;;5040560;28;20040;-87
2022/08/07 02:28:09;;;;;;;4.68;3.10;;;;;;;;;;5040492;28;20043;-88
2022/08/07 02:30:35;;;;;;;5.45;3.70;;;;;;;;;;5038012;28;20036;-88
2022/08/07 02:33:03;;;;;;;5.65;3.60;;;;;;;;;;5045500;28;20642;-90
2022/08/07 02:35:30;;;;;;;5.18;3.42;;;;;;;;;;5002379;28;20402;-88
2022/08/07 02:37:58;;;;;;;7.50;3.55;;;;;;;;;;5051516;28;20036;-89
2022/08/07 02:40:24;;;;;;;5.82;3.83;;;;;;;;;;5055335;28;20439;-88
2022/08/07 02:42:50;;;;;;;6.93;3.58;;;;;;;;;;5040401;28;21049;-88
2022/08/07 02:45:18;;;;;;;6.22;4.38;;;;;;;;;;5056735;28;20025;-88
2022/08/07 02:47:44;;;;;;;5.30;3.33;;;;;;;;;;5040353;28;20124;-87
2022/08/07 02:50:10;;;;;;;4.82;3.10;;;;;;;;;;5037725;28;20029;-89
2022/08/07 02:52:37;;;;;;;4.65;3.20;;;;;;;;;;5037931;28;20096;-88
2022/08/07 02:55:23;;;;;;;5.10;3.22;;;;;;;;;;5038427;28;20023;-88
2022/08/07 02:57:50;;;;;;;5.55;3.20;;;;;;;;;;5019498;28;20036;-88
2022/08/07 03:00:17;;;;;;;6.55;3.72;;;;;;;;;;5041767;28;20022;-88
2022/08/07 03:02:45;;;;;;;6.30;3.40;;;;;;;;;;5049739;28;20479;-89
2022/08/07 03:05:11;;;;;;;5.55;3.35;;;;;;;;;;5032951;28;20048;-88
2022/08/07 03:07:38;;;;;;;5.05;3.45;;;;;;;;;;5053201;28;20032;-89
2022/08/07 03:10:05;;;;;;;6.30;3.00;;;;;;;;;;5038009;28;20546;-89
2022/08/07 03:12:31;;;;;;;5.90;3.40;;;;;;;;;;5037580;28;20033;-88
2022/08/07 03:14:58;;;;;;;5.72;3.53;;;;;;;;;;5051558;28;20074;-88
2022/08/07 03:17:24;;;;;;;5.40;2.95;;;;;;;;;;5038651;28;20032;-88
2022/08/07 03:19:51;;;;;;;5.57;3.42;;;;;;;;;;5054988;28;20021;-89
2022/08/07 03:22:18;;;;;;;6.03;3.38;;;;;;;;;;5039247;28;20032;-88
2022/08/07 03:24:44;;;;;;;4.82;3.55;;;;;;;;;;5039406;28;20033;-89
2022/08/07 03:27:10;;;;;;;5.10;3.25;;;;;;;;;;5038012;28;20493;-88
2022/08/07 03:29:41;;;;;;;5.18;3.28;;;;;;;;;;5037337;28;20024;-88
2022/08/07 03:32:10;;;;;;;5.30;3.35;;;;;;;;;;5038573;28;20470;-90
2022/08/07 03:34:37;;;;;;;5.07;3.08;;;;;;;;;;5059392;28;20063;-90
2022/08/07 03:37:03;;;;;;;5.38;3.25;;;;;;;;;;5059546;28;20115;-91
2022/08/07 03:39:35;;;;;;;5.30;3.35;;;;;;;;;;5043284;28;20506;-89
2022/08/07 03:42:07;;;;;;;6.32;3.22;;;;;;;;;;5061754;28;20282;-90
2022/08/07 03:44:35;;;;;;;4.32;2.95;;;;;;;;;;5041463;28;20056;-89
2022/08/07 03:47:01;;;;;;;5.20;3.25;;;;;;;;;;5042161;28;20090;-89
2022/08/07 03:49:28;;;;;;;5.18;3.50;;;;;;;;;;5041598;28;20033;-90
2022/08/07 03:51:54;;;;;;;5.22;3.00;;;;;;;;;;5061169;28;20067;-90
2022/08/07 03:54:21;;;;;;;4.97;3.25;;;;;;;;;;5041381;28;20028;-91
2022/08/07 03:56:47;;;;;;;5.38;3.22;;;;;;;;;;5033378;28;20033;-91
2022/08/07 03:59:14;;;;;;;6.05;3.40;;;;;;;;;;5051432;28;20025;-91
2022/08/07 04:01:41;;;;;;;5.00;3.05;;;;;;;;;;5051051;28;20525;-89
2022/08/07 04:04:07;;;;;;;4.95;3.10;;;;;;;;;;5042897;28;20107;-90
2022/08/07 04:06:34;;;;;;;5.30;3.30;;;;;;;;;;5043980;28;20100;-90
2022/08/07 04:09:01;;;;;;;7.20;2.97;;;;;;;;;;5059648;28;20017;-88
2022/08/07 04:11:27;;;;;;;5.25;3.45;;;;;;;;;;5061219;28;20052;-88
2022/08/07 04:13:53;;;;;;;5.22;3.25;;;;;;;;;;5042866;28;20025;-88
2022/08/07 04:16:20;;;;;;;5.65;3.28;;;;;;;;;;5056036;28;20041;-89
2022/08/07 04:18:46;;;;;;;4.85;2.88;;;;;;;;;;5055074;28;20033;-88
2022/08/07 04:21:12;;;;;;;4.70;3.30;;;;;;;;;;5037254;28;20049;-87
2022/08/07 04:23:38;;;;;;;6.53;3.10;;;;;;;;;;5040828;28;20029;-88
2022/08/07 04:26:06;;;;;;;4.90;3.10;;;;;;;;;;5045593;28;20025;-88
2022/08/07 04:28:32;;;;;;;6.32;3.40;;;;;;;;;;5053924;28;20032;-87
2022/08/07 04:30:58;;;;;;;5.00;3.20;;;;;;;;;;5051101;28;20083;-88
2022/08/07 04:33:26;;;;;;;5.25;3.20;;;;;;;;;;5051640;28;20036;-88
2022/08/07 04:35:53;;;;;;;5.30;3.40;;;;;;;;;;5033834;28;20096;-86
2022/08/07 04:38:19;;;;;;;5.28;3.20;;;;;;;;;;5052398;28;20021;-87
2022/08/07 04:40:46;;;;;;;5.07;3.45;;;;;;;;;;5051917;28;20087;-87
2022/08/07 04:43:14;;;;;;;4.90;3.15;;;;;;;;;;5053208;28;20040;-87
2022/08/07 04:46:02;;;;;;;4.88;2.85;;;;;;;;;;5053529;28;20028;-87
2022/08/07 04:48:44;;;;;;;4.82;3.03;;;;;;;;;;5053056;28;20028;-88
2022/08/07 04:51:26;;;;;;;4.75;3.08;;;;;;;;;;5052563;28;20025;-87
2022/08/07 04:53:55;;;;;;;5.32;3.33;;;;;;;;;;5036009;28;20483;-88
2022/08/07 04:56:26;;;;;;;4.88;3.17;;;;;;;;;;5037270;28;20029;-88
2022/08/07 04:58:56;;;;;;;5.30;3.25;;;;;;;;;;5034917;28;20124;-86
2022/08/07 05:01:44;;;;;;;5.78;3.10;;;;;;;;;;5034977;28;20033;-87
2022/08/07 05:04:14;;;;;;;4.90;2.97;;;;;;;;;;5053497;28;20079;-87
2022/08/07 05:06:44;;;;;;;4.88;2.90;;;;;;;;;;5053271;28;20036;-87
2022/08/07 05:09:18;;;;;;;5.22;3.00;;;;;;;;;;5052806;28;20060;-87
2022/08/07 05:11:49;;;;;;;5.30;3.40;;;;;;;;;;5030481;28;20037;-87
2022/08/07 05:14:19;;;;;;;5.18;2.85;;;;;;;;;;5032658;28;20087;-86
2022/08/07 05:16:46;;;;;;;5.53;3.33;;;;;;;;;;5032535;28;20112;-87
2022/08/07 05:19:17;;;;;;;4.88;3.00;;;;;;;;;;5016099;28;20093;-86
2022/08/07 05:21:45;;;;;;;5.72;3.03;;;;;;;;;;5014718;28;20028;-87
2022/08/07 05:24:12;;;;;;;4.93;2.90;;;;;;;;;;5052807;28;20025;-87
2022/08/07 05:26:38;;;;;;;4.57;2.67;;;;;;;;;;5053276;28;20029;-87
2022/08/07 05:29:06;;;;;;;5.57;3.40;;;;;;;;;;5052811;28;20479;-87
2022/08/07 05:31:33;;;;;;;6.05;2.92;;;;;;;;;;5051817;28;20056;-89
2022/08/07 05:34:00;;;;;;;4.95;3.13;;;;;;;;;;5034509;28;20069;-86
2022/08/07 05:36:27;;;;;;;4.70;2.90;;;;;;;;;;5033566;28;20100;-87
2022/08/07 05:38:53;;;;;;;5.07;3.10;;;;;;;;;;5018905;28;20092;-86
2022/08/07 05:41:20;;;;;;;6.00;3.10;;;;;;;;;;5018424;28;20403;-86
2022/08/07 05:43:48;;;;;;;5.38;2.88;;;;;;;;;;5036151;28;20414;-87
2022/08/07 05:46:16;;;;;;;5.45;3.10;;;;;;;;;;5036955;28;20048;-87
2022/08/07 05:48:42;;;;;;;4.40;2.90;;;;;;;;;;5058498;28;20116;-87
2022/08/07 05:51:09;;;;;;;4.82;2.88;;;;;;;;;;5056856;28;20018;-87
2022/08/07 05:53:35;;;;;;;4.82;3.17;;;;;;;;;;5056867;28;20084;-87
2022/08/07 05:56:03;;;;;;;5.32;2.75;;;;;;;;;;5055334;28;20402;-88
2022/08/07 05:58:29;;;;;;;5.65;2.90;;;;;;;;;;5055479;28;20029;-87
2022/08/07 06:00:56;;;;;;;7.10;3.30;;;;;;;;;;5055872;28;20029;-86
2022/08/07 06:03:23;;;;;;;6.43;2.90;;;;;;;;;;5057641;28;20036;-87
2022/08/07 06:05:49;;;;;;;4.65;2.83;;;;;;;;;;5037560;28;20479;-87
2022/08/07 06:08:15;;;;;;;5.43;2.92;;;;;;;;;;5038217;28;20025;-88
2022/08/07 06:10:42;;;;;;;5.90;3.30;;;;;;;;;;5055257;28;20542;-87
2022/08/07 06:13:08;;;;;;;4.68;2.80;;;;;;;;;;5056625;28;20021;-87
2022/08/07 06:15:39;;;;;;;7.82;3.03;;;;;;;;;;5039947;28;20235;-87
2022/08/07 06:18:05;;;;;;;5.28;3.45;;;;;;;;;;5038927;28;20668;-88
2022/08/07 06:20:34;;;;;;;5.15;3.35;;;;;;;;;;5056792;28;20021;-88
2022/08/07 06:23:02;;;;;;;5.05;3.00;;;;;;;;;;5032415;28;20052;-88
2022/08/07 06:25:28;;;;;;;4.78;3.05;;;;;;;;;;5048840;28;20025;-89
2022/08/07 06:28:04;;;;;;;5.30;3.03;;;;;;;;;;5037455;28;20322;-88
2022/08/07 06:30:30;;;;;;;5.28;3.38;;;;;;;;;;5036816;28;20072;-88
2022/08/07 06:32:56;;;;;;;5.18;2.90;;;;;;;;;;5038274;28;20517;-88
2022/08/07 06:35:22;;;;;;;5.28;3.13;;;;;;;;;;5037189;28;20536;-88
2022/08/07 06:37:48;;;;;;;6.03;3.55;;;;;;;;;;5055584;28;20490;-88
2022/08/07 06:40:14;;;;;;;4.90;3.20;;;;;;;;;;5057057;28;20053;-88
2022/08/07 06:42:41;;;;;;;8.05;3.33;;;;;;;;;;5055320;28;20029;-88
2022/08/07 06:45:10;;;;;;;5.57;2.80;;;;;;;;;;5037336;28;20029;-88
2022/08/07 06:47:36;;;;;;;5.28;3.20;;;;;;;;;;5036887;28;20060;-89
2022/08/07 06:50:02;;;;;;;5.65;3.15;;;;;;;;;;5037277;28;20024;-88
2022/08/07 06:52:30;;;;;;;5.65;3.15;;;;;;;;;;5055609;28;20024;-88
2022/08/07 06:54:56;;;;;;;6.78;3.20;;;;;;;;;;5055324;28;20100;-88
2022/08/07 06:57:23;;;;;;;5.32;3.10;;;;;;;;;;5057432;28;20040;-88
2022/08/07 06:59:50;;;;;;;5.93;3.20;;;;;;;;;;5048761;28;20025;-88
2022/08/07 07:02:20;;;;;;;5.57;2.95;;;;;;;;;;5066274;28;20380;-88
2022/08/07 07:04:46;;;;;;;5.07;3.03;;;;;;;;;;5044807;28;20608;-87
2022/08/07 07:07:13;;;;;;;5.55;3.05;;;;;;;;;;5061731;28;20052;-88
2022/08/07 07:09:46;;;;;;;5.03;2.95;;;;;;;;;;5056716;28;20036;-88
2022/08/07 07:12:12;;;;;;;;;;;;;;;;;;5065510;28;20111;-88
2022/08/07 07:14:56;;;;;;;6.20;3.17;;;;;;;;;;5047948;28;20030;-88
2022/08/07 07:17:27;;;;;;;6.50;2.92;;;;;;;;;;5039104;28;20028;-88
2022/08/07 07:19:55;;;;;;;4.93;3.05;;;;;;;;;;5055698;28;20077;-90
2022/08/07 07:22:22;;;;;;;5.20;3.40;;;;;;;;;;5036728;28;20502;-88
2022/08/07 07:24:49;;;;;;;4.85;2.92;;;;;;;;;;5056437;28;20505;-88
2022/08/07 07:27:16;;;;;;;4.95;3.17;;;;;;;;;;5037779;28;20748;-88
2022/08/07 07:29:45;;;;;;;4.85;2.95;;;;;;;;;;5037636;28;20116;-89
2022/08/07 07:32:12;;;;;;;5.15;3.20;;;;;;;;;;5032712;28;20025;-89
2022/08/07 07:34:40;;;;;;;4.88;3.10;;;;;;;;;;5024822;28;20024;-90
2022/08/07 07:37:06;;;;;;;5.57;2.70;;;;;;;;;;5035579;28;20029;-89
2022/08/07 07:39:32;;;;;;;5.55;3.00;;;;;;;;;;5035481;28;20056;-89
2022/08/07 07:41:59;;;;;;;6.03;3.60;;;;;;;;;;5040832;28;20029;-89
2022/08/07 07:44:27;;;;;;;5.30;3.22;;;;;;;;;;5056720;28;20083;-90
2022/08/07 07:46:53;;;;;;;5.90;3.35;;;;;;;;;;5037452;28;20413;-90
2022/08/07 07:49:20;;;;;;;5.85;3.30;;;;;;;;;;5037298;28;20120;-90
2022/08/07 07:51:48;;;;;;;5.20;3.13;;;;;;;;;;5065578;28;20077;-89
2022/08/07 07:54:14;;;;;;;5.47;2.90;;;;;;;;;;5049082;28;20047;-89
2022/08/07 07:56:42;;;;;;;8.13;3.35;;;;;;;;;;5048182;28;20032;-88
2022/08/07 07:59:09;;;;;;;4.63;2.88;;;;;;;;;;5043393;28;20028;-88
2022/08/07 08:01:37;;;;;;;4.85;2.90;;;;;;;;;;5046423;28;20128;-89
2022/08/07 08:04:04;;;;;;;5.65;3.40;;;;;;;;;;5040009;28;20017;-90
2022/08/07 08:06:31;;;;;;;5.25;3.60;;;;;;;;;;5056633;28;20029;-89
2022/08/07 08:08:58;;;;;;;5.25;3.58;;;;;;;;;;5038779;28;20443;-89
2022/08/07 08:11:24;;;;;;;4.68;2.88;;;;;;;;;;5038464;28;20013;-88
2022/08/07 08:13:50;;;;;;;5.00;3.47;;;;;;;;;;5036616;28;20032;-90
2022/08/07 08:16:19;;;;;;;4.70;3.17;;;;;;;;;;5038409;28;20074;-90
2022/08/07 08:18:45;;;;;;;4.50;2.85;;;;;;;;;;5057897;28;20378;-90
2022/08/07 08:27:03;;;;;;;5.00;2.95;;;;;;;;;;5039864;28;20028;-90
2022/08/07 08:27:08;;;;;;;5.10;3.00;;;;;;;;;;5055701;28;20036;-89
2022/08/07 08:29:42;;;;;;;5.13;3.03;;;;;;;;;;5044276;28;20044;-91
2022/08/07 08:32:10;;;;;;;5.00;3.30;;;;;;;;;;5038381;28;20044;-90
2022/08/07 08:34:38;;;;;;;4.85;3.28;;;;;;;;;;5055643;28;20025;-89
2022/08/07 08:37:04;;;;;;;4.97;3.10;;;;;;;;;;5038579;28;20029;-89
2022/08/07 08:39:31;;;;;;;5.00;2.97;;;;;;;;;;5038761;28;20052;-89
2022/08/07 08:41:59;;;;;;;5.72;2.95;;;;;;;;;;5038210;28;20056;-90
2022/08/07 08:44:30;;;;;;;5.65;2.72;;;;;;;;;;5037160;28;20032;-90
2022/08/07 08:47:02;;;;;;;4.72;2.97;;;;;;;;;;5038209;28;20104;-89
2022/08/07 08:49:37;;;;;;;5.80;3.10;;;;;;;;;;5056537;28;20029;-89
2022/08/07 08:52:07;;;;;;;5.68;3.25;;;;;;;;;;5036799;28;20037;-90
2022/08/07 08:54:52;;;;;;;6.18;3.10;;;;;;;;;;5035929;28;20028;-90
2022/08/07 08:57:37;;;;;;;6.32;3.05;;;;;;;;;;5035848;28;20020;-90
2022/08/07 09:00:07;;;;;;;4.88;2.97;;;;;;;;;;5036565;28;20029;-89
2022/08/07 09:02:40;;;;;;;4.97;2.95;;;;;;;;;;5053355;28;20032;-89
2022/08/07 09:05:18;;;;;;;5.75;3.70;;;;;;;;;;5056163;28;20025;-88
2022/08/07 09:07:48;;;;;;;4.68;2.95;;;;;;;;;;5057613;28;20437;-90
2022/08/07 09:10:41;;;;;;;5.45;3.00;;;;;;;;;;5043111;28;20116;-90
2022/08/07 09:13:19;;;;;;;5.00;2.90;;;;;;;;;;4963389;28;20027;-90
2022/08/07 09:15:49;;;;;;;5.57;3.13;;;;;;;;;;4965048;28;20045;-90
2022/08/07 09:18:33;;;;;;;5.38;3.20;;;;;;;;;;4961492;28;20122;-88
2022/08/07 09:21:26;;;;;;;6.43;3.30;;;;;;;;;;4964066;28;20058;-89
2022/08/07 09:24:10;;;;;;;6.07;3.17;;;;;;;;;;4977001;28;20037;-90
2022/08/07 09:26:52;;;;;;;4.78;2.97;;;;;;;;;;4970547;28;20035;-91
2022/08/07 09:29:18;;;;;;;5.83;3.40;;;;;;;;;;4964853;28;20185;-90
2022/08/07 09:31:52;;;;;;;5.35;3.10;;;;;;;;;;4963091;28;20031;-89
2022/08/07 09:34:27;;;;;;;4.47;2.85;;;;;;;;;;4961357;28;20237;-91
2022/08/07 09:37:13;;;;;;;4.63;2.72;;;;;;;;;;4964069;28;20035;-90
2022/08/07 09:40:04;;;;;;;5.90;3.50;;;;;;;;;;4962801;28;20051;-89
2022/08/07 09:42:34;;;;;;;6.15;3.67;;;;;;;;;;4957910;28;20051;-90
2022/08/07 09:45:10;;;;;;;6.78;3.47;;;;;;;;;;4961531;28;20019;-89
2022/08/07 09:47:54;;;;;;;5.18;3.17;;;;;;;;;;4959748;28;20408;-90
2022/08/07 09:50:35;;;;;;;5.65;3.15;;;;;;;;;;5013213;28;20029;-90
2022/08/07 09:53:04;;;;;;;4.63;2.80;;;;;;;;;;5040774;28;20317;-90
2022/08/07 09:55:48;;;;;;;4.43;2.90;;;;;;;;;;5041511;28;20482;-90
2022/08/07 09:58:25;;;;;;;5.63;3.28;;;;;;;;;;5056582;28;20036;-90
2022/08/07 10:01:08;;;;;;;5.15;2.95;;;;;;;;;;5039119;28;20179;-90
2022/08/07 10:03:46;;;;;;;4.97;2.90;;;;;;;;;;5057832;28;20108;-88
2022/08/07 10:06:31;;;;;;;12.15;8.10;;;;;;;;;;5042009;28;20029;-89
2022/08/07 10:09:07;;;;;;;5.20;3.33;;;;;;;;;;5057045;28;20025;-89
2022/08/07 10:11:58;;;;;;;5.13;3.40;;;;;;;;;;5057764;28;20021;-89
2022/08/07 10:14:33;;;;;;;5.43;3.13;;;;;;;;;;5058787;28;20017;-89
2022/08/07 10:17:05;;;;;;;8.05;5.90;;;;;;;;;;5058559;28;20029;-90
2022/08/07 10:19:31;;;;;;;11.07;8.10;;;;;;;;;;5039078;28;20033;-89
2022/08/07 10:21:57;;;;;;;6.10;4.22;;;;;;;;;;5040804;28;20040;-88
2022/08/07 10:24:37;;;;;;;5.10;3.13;;;;;;;;;;5041250;28;20037;-89
2022/08/07 10:27:21;;;;;;;8.65;6.40;;;;;;;;;;5050077;28;20029;-89
2022/08/07 10:29:58;;;;;;;10.48;7.45;;;;;;;;;;5059497;28;20021;-89
2022/08/07 10:32:32;;;;;;;5.50;3.10;;;;;;;;;;5057906;28;20017;-88
2022/08/07 10:35:08;;;;;;;6.10;3.80;;;;;;;;;;5039152;28;20048;-89
2022/08/07 10:37:52;;;;;;;4.95;2.90;;;;;;;;;;5058020;28;20098;-89
2022/08/07 10:40:34;;;;;;;6.07;3.33;;;;;;;;;;5038756;28;20113;-89
2022/08/07 10:43:01;;;;;;;6.88;4.50;;;;;;;;;;5056491;28;20028;-88
2022/08/07 10:45:31;;;;;;;5.05;3.30;;;;;;;;;;5040252;28;20399;-88
2022/08/07 10:48:04;;;;;;;5.82;3.70;;;;;;;;;;5039467;28;20090;-88
2022/08/07 10:50:44;;;;;;;7.47;5.22;;;;;;;;;;5031227;28;20117;-88
2022/08/07 10:53:27;;;;;;;9.77;6.18;;;;;;;;;;5050499;28;20221;-89
2022/08/07 10:56:05;;;;;;;5.35;3.03;;;;;;;;;;5057416;28;20598;-90
2022/08/07 10:58:50;;;;;;;6.47;3.53;;;;;;;;;;5058462;28;20025;-89
2022/08/07 11:01:36;;;;;;;9.98;7.35;;;;;;;;;;5047456;28;20116;-89
2022/08/07 11:04:23;;;;;;;5.45;3.33;;;;;;;;;;5037476;28;20048;-86
2022/08/07 11:07:02;;;;;;;4.63;2.67;;;;;;;;;;5036344;28;20053;-89
2022/08/07 11:09:31;;;;;;;4.60;2.50;;;;;;;;;;5037355;28;20022;-86
2022/08/07 11:12:11;;;;;;;4.78;2.42;;;;;;;;;;5046849;28;20052;-90
2022/08/07 11:14:43;;;;;;;4.78;2.95;;;;;;;;;;5034366;28;20018;-88
2022/08/07 11:17:09;;;;;;;;;;;;;;;;;;5036734;28;20087;-85
2022/08/07 11:19:36;;;;;;;4.45;2.90;;;;;;;;;;5036739;28;19905;-90
2022/08/07 11:22:12;;;;;;;4.43;2.78;;;;;;;;;;5037093;28;20032;-90
2022/08/07 11:24:38;;;;;;;6.15;2.45;;;;;;;;;;5023478;28;20115;-88
2022/08/07 11:27:20;;;;;;;4.25;2.65;;;;;;;;;;5027674;28;20024;-88
2022/08/07 11:29:53;;;;;;;5.30;2.97;;;;;;;;;;5039147;28;20128;-89
2022/08/07 11:32:22;;;;;;;5.40;3.30;;;;;;;;;;5040179;28;20029;-89
2022/08/07 11:34:53;;;;;;;4.38;2.90;;;;;;;;;;5038240;28;20027;-89
2022/08/07 11:37:19;;;;;;;4.25;2.72;;;;;;;;;;5041402;28;20025;-88
2022/08/07 11:39:52;;;;;;;4.50;2.80;;;;;;;;;;5042035;28;20135;-89
2022/08/07 11:42:21;;;;;;;6.25;2.83;;;;;;;;;;5040017;28;20025;-89
2022/08/07 11:44:56;;;;;;;4.57;2.95;;;;;;;;;;5057029;28;20394;-89
2022/08/07 11:47:30;;;;;;;5.63;2.78;;;;;;;;;;5058323;28;20039;-89
2022/08/07 11:50:02;;;;;;;7.00;3.00;;;;;;;;;;5060503;28;20386;-88
2022/08/07 11:52:47;;;;;;;4.55;2.90;;;;;;;;;;5039760;28;20086;-89
2022/08/07 11:55:19;;;;;;;5.30;2.63;;;;;;;;;;5040559;28;20021;-89
2022/08/07 11:57:48;;;;;;;5.18;2.90;;;;;;;;;;5040431;28;20111;-89
2022/08/07 12:00:17;;;;;;;4.95;2.80;;;;;;;;;;5040092;28;20067;-89
2022/08/07 12:02:46;;;;;;;4.20;2.70;;;;;;;;;;5057771;28;20551;-89
2022/08/07 12:05:19;;;;;;;5.00;2.92;;;;;;;;;;5059244;28;20037;-89
2022/08/07 12:08:01;;;;;;;4.93;3.60;;;;;;;;;;5059429;28;20066;-89
2022/08/07 12:10:27;;;;;;;;;;;;;;;;;;5059278;28;20017;-90
2022/08/07 12:12:56;;;;;;;6.25;4.30;;;;;;;;;;5041412;28;19912;-89
2022/08/07 12:15:33;;;;;;;4.70;3.42;;;;;;;;;;5042044;28;20040;-89
2022/08/07 12:18:05;;;;;;;7.10;3.45;;;;;;;;;;5038284;28;20075;-89
2022/08/07 12:20:37;;;;;;;5.53;3.28;;;;;;;;;;5021658;28;20121;-89
2022/08/07 12:23:03;;;;;;;;;;;;;;;;;;5032453;28;20021;-89
2022/08/07 12:28:23;;;;;;;4.93;3.13;;;;;;;;;;5038160;28;20036;-89
2022/08/07 12:30:52;;;;;;;4.85;3.10;;;;;;;;;;5038044;28;20032;-88
2022/08/07 12:33:19;;;;;;;5.40;3.25;;;;;;;;;;5038089;28;20025;-90
2022/08/07 12:35:48;;;;;;;5.40;3.42;;;;;;;;;;5055433;28;20394;-89
2022/08/07 12:38:14;;;;;;;5.28;3.60;;;;;;;;;;5055960;28;20032;-89
2022/08/07 12:40:41;;;;;;;4.80;3.42;;;;;;;;;;5057621;28;20045;-89
2022/08/07 12:43:09;;;;;;;5.65;3.17;;;;;;;;;;5058523;28;20104;-89
2022/08/07 12:45:39;;;;;;;4.63;3.08;;;;;;;;;;5038177;28;20040;-90
2022/08/07 12:48:17;;;;;;;5.88;3.17;;;;;;;;;;5058968;28;20025;-89
2022/08/07 12:50:49;;;;;;;4.88;2.90;;;;;;;;;;5056384;28;20071;-89
2022/08/07 12:53:25;;;;;;;4.30;3.03;;;;;;;;;;5038203;28;20033;-89
2022/08/07 12:55:55;;;;;;;4.90;3.40;;;;;;;;;;5037303;28;20021;-89
2022/08/07 12:58:22;;;;;;;4.75;3.50;;;;;;;;;;5038236;28;20663;-89
2022/08/07 13:00:59;;;;;;;6.25;3.53;;;;;;;;;;5037645;28;20029;-89
2022/08/07 13:03:44;;;;;;;6.03;3.60;;;;;;;;;;5055670;28;20083;-89
2022/08/07 13:06:38;;;;;;;5.63;3.72;;;;;;;;;;5054125;28;20033;-89
2022/08/07 13:09:31;;;;;;;4.78;3.40;;;;;;;;;;5054773;28;20095;-89
2022/08/07 13:11:57;;;;;;;6.25;3.50;;;;;;;;;;5035683;28;20099;-89
2022/08/07 13:14:30;;;;;;;5.57;3.42;;;;;;;;;;5054325;28;20018;-88
2022/08/07 13:16:59;;;;;;;4.85;3.20;;;;;;;;;;5053655;28;20029;-90
2022/08/07 13:19:35;;;;;;;4.60;3.20;;;;;;;;;;5036837;28;20113;-89
2022/08/07 13:22:08;;;;;;;5.05;3.45;;;;;;;;;;5057596;28;20021;-89
2022/08/07 13:24:38;;;;;;;5.15;3.67;;;;;;;;;;5035730;28;20174;-89
2022/08/07 13:27:20;;;;;;;5.43;3.38;;;;;;;;;;5036579;28;20044;-88
2022/08/07 13:29:52;;;;;;;4.82;3.05;;;;;;;;;;5055037;28;20079;-89
2022/08/07 13:32:25;;;;;;;4.93;3.08;;;;;;;;;;5040262;28;20025;-88
2022/08/07 13:35:00;;;;;;;5.55;3.28;;;;;;;;;;5038036;28;20036;-89
2022/08/07 13:37:41;;;;;;;4.60;2.75;;;;;;;;;;5038320;28;20025;-88
2022/08/07 13:40:25;;;;;;;4.03;2.78;;;;;;;;;;5037006;28;20048;-88
2022/08/07 13:42:52;;;;;;;4.30;2.80;;;;;;;;;;5056345;28;20025;-88
2022/08/07 13:45:20;;;;;;;5.53;3.70;;;;;;;;;;5056261;28;20029;-88
2022/08/07 13:47:47;;;;;;;4.60;3.10;;;;;;;;;;5056967;28;20025;-89
2022/08/07 13:50:14;;;;;;;4.90;2.92;;;;;;;;;;5038465;28;20032;-88
2022/08/07 13:52:43;;;;;;;5.22;3.03;;;;;;;;;;5056712;28;20135;-89
2022/08/07 13:55:20;;;;;;;10.10;3.58;;;;;;;;;;5037252;28;20518;-90
2022/08/07 13:57:48;;;;;;;7.03;3.55;;;;;;;;;;5044171;28;20064;-88
2022/08/07 14:00:15;;;;;;;5.10;3.47;;;;;;;;;;5042604;28;20124;-89
2022/08/07 14:02:42;;;;;;;5.18;3.38;;;;;;;;;;5040951;28;20112;-88
2022/08/07 14:05:12;;;;;;;5.05;3.35;;;;;;;;;;5040808;28;20548;-88
2022/08/07 14:07:42;;;;;;;5.28;3.45;;;;;;;;;;5061016;28;20040;-89
2022/08/07 14:10:09;;;;;;;4.60;2.92;;;;;;;;;;5044703;28;20013;-89
2022/08/07 14:12:50;;;;;;;4.35;3.28;;;;;;;;;;5046915;28;20654;-88
2022/08/07 14:15:18;;;;;;;4.80;3.22;;;;;;;;;;5042789;28;20097;-88
2022/08/07 14:17:45;;;;;;;5.68;3.10;;;;;;;;;;5040246;28;20025;-87
2022/08/07 14:20:11;;;;;;;5.15;2.83;;;;;;;;;;5038572;28;20510;-89
2022/08/07 14:22:38;;;;;;;4.93;3.05;;;;;;;;;;5041223;28;20487;-89
2022/08/07 14:25:11;;;;;;;5.95;3.28;;;;;;;;;;5040026;28;20025;-89
2022/08/07 14:27:45;;;;;;;4.85;3.47;;;;;;;;;;5040117;28;20029;-89
2022/08/07 14:30:13;;;;;;;4.40;3.03;;;;;;;;;;5045115;28;20028;-87
2022/08/07 14:32:46;;;;;;;5.22;3.58;;;;;;;;;;5044663;28;20021;-88
2022/08/07 14:35:20;;;;;;;5.53;3.40;;;;;;;;;;5045965;28;20055;-88
2022/08/07 14:37:48;;;;;;;5.90;3.30;;;;;;;;;;5047748;28;20056;-87
2022/08/07 14:40:18;;;;;;;4.57;3.10;;;;;;;;;;5048760;28;20503;-89
2022/08/07 14:42:52;;;;;;;6.53;3.67;;;;;;;;;;5047135;28;20043;-89
2022/08/07 14:45:18;;;;;;;4.80;3.00;;;;;;;;;;5029259;28;20048;-89
2022/08/07 14:47:46;;;;;;;5.80;3.25;;;;;;;;;;5028471;28;20337;-88
2022/08/07 14:50:17;;;;;;;4.93;3.50;;;;;;;;;;5040873;28;20029;-87
2022/08/07 14:52:44;;;;;;;4.72;3.00;;;;;;;;;;5038497;28;20045;-90
2022/08/07 14:55:12;;;;;;;4.63;3.00;;;;;;;;;;5036099;28;20108;-89
2022/08/07 14:57:39;;;;;;;4.55;3.20;;;;;;;;;;5040951;28;20024;-89
2022/08/07 15:00:07;;;;;;;5.07;3.40;;;;;;;;;;5050404;28;20499;-91
2022/08/07 15:02:35;;;;;;;6.07;3.42;;;;;;;;;;5023329;28;20040;-88
2022/08/07 15:05:02;;;;;;;5.00;3.70;;;;;;;;;;5024295;28;20622;-90
2022/08/07 15:07:30;;;;;;;4.60;3.17;;;;;;;;;;5023622;28;20026;-89